NCAR-RAP Real-Time Weather Data

Output produced by METARs form (06 May 2021  16:10 UTC)
found at http://weather.rap.ucar.edu/surface/
 
KROC 061554Z 36006KT 10SM FEW030 FEW250 10/M01 A3007 RMK AO2 SLP189 T01001011 $
KROC 061454Z 01008KT 10SM FEW030 FEW250 09/M01 A3009 RMK AO2 SLP195 T00941006
KROC 061354Z 36007KT 320V050 10SM FEW030 FEW250 09/01 A3009 RMK AO2 SLP196 T00890006 $
KROC 061300Z 01009KT 10SM FEW025 08/02 A3008 RMK AO2 T00780022 $
KROC 061256Z 31007KT 10SM FEW025 08/02 A3008 RMK AO2 T00780022 $
KROC 061154Z 34005KT 10SM FEW025 07/03 A3007 RMK AO2 SLP190 T00670028 10078 20033 51014 $
KROC 061054Z 28004KT 10SM FEW025 FEW120 04/03 A3006 RMK AO2 SLP185 T00440033 $
KROC 060954Z 27004KT 10SM FEW030 FEW150 04/03 A3005 RMK AO2 SLP182 T00390028 $
KROC 060854Z 28005KT 10SM CLR 04/03 A3003 RMK AO2 SLP176 T00440028 53008 $
KROC 060754Z 31008KT 10SM CLR 06/03 A3002 RMK AO2 SLP171 T00560028
KROC 060654Z 31008KT 10SM FEW080 07/03 A3001 RMK AO2 SLP169 T00670028
KROC 060554Z 31011KT 10SM FEW035 OVC080 08/03 A3001 RMK AO2 SLP167 BINOVC 60000 T00780028 10100 20078 53008
KROC 060454Z 32015G20KT 10SM SCT033 BKN050 OVC080 08/03 A3000 RMK AO2 SLP164 T00830028 401390083
KROC 060354Z 32012G19KT 10SM FEW035 OVC048 08/03 A2999 RMK AO2 RAB06E15 SLP162 P0000 T00830033
KROC 060254Z 31010G19KT 10SM BKN050 BKN070 09/03 A2999 RMK AO2 SLP159 60000 T00890028 51025
KROC 060154Z 31014G23KT 10SM SCT033 BKN049 BKN075 09/03 A2997 RMK AO2 RAB24E45 SLP153 P0000 T00890033
KROC 060054Z 30014G20KT 10SM FEW015 OVC030 09/04 A2994 RMK AO2 SLP142 T00940039